sensor_id;sensor_type;location;lat;lon;timestamp;temperature;humidity
5705;DHT22;2877;48.238;11.160;2022-08-19T00:00:09;17.40;99.90
5705;DHT22;2877;48.238;11.160;2022-08-19T00:02:35;17.50;99.90
5705;DHT22;2877;48.238;11.160;2022-08-19T00:05:02;17.60;99.90
5705;DHT22;2877;48.238;11.160;2022-08-19T00:07:28;17.60;99.90
5705;DHT22;2877;48.238;11.160;2022-08-19T00:09:54;17.70;99.90
5705;DHT22;2877;48.238;11.160;2022-08-19T00:12:20;17.70;99.90
5705;DHT22;2877;48.238;11.160;2022-08-19T00:14:45;17.70;99.90
5705;DHT22;2877;48.238;11.160;2022-08-19T00:17:11;17.80;99.90
5705;DHT22;2877;48.238;11.160;2022-08-19T00:19:38;17.80;99.90
5705;DHT22;2877;48.238;11.160;2022-08-19T00:22:04;17.80;99.90
5705;DHT22;2877;48.238;11.160;2022-08-19T00:24:31;17.80;99.90
5705;DHT22;2877;48.238;11.160;2022-08-19T00:26:57;17.80;99.90
5705;DHT22;2877;48.238;11.160;2022-08-19T00:29:24;17.80;99.90
5705;DHT22;2877;48.238;11.160;2022-08-19T00:31:50;17.80;99.90
5705;DHT22;2877;48.238;11.160;2022-08-19T00:34:19;17.80;99.90
5705;DHT22;2877;48.238;11.160;2022-08-19T00:36:44;17.80;99.90
5705;DHT22;2877;48.238;11.160;2022-08-19T00:39:12;17.80;99.90
5705;DHT22;2877;48.238;11.160;2022-08-19T00:41:38;17.80;99.90
5705;DHT22;2877;48.238;11.160;2022-08-19T00:44:12;17.80;99.90
5705;DHT22;2877;48.238;11.160;2022-08-19T00:46:42;17.80;99.90
5705;DHT22;2877;48.238;11.160;2022-08-19T00:49:24;17.80;99.90
5705;DHT22;2877;48.238;11.160;2022-08-19T00:51:55;17.80;99.90
5705;DHT22;2877;48.238;11.160;2022-08-19T00:54:22;17.80;99.90
5705;DHT22;2877;48.238;11.160;2022-08-19T00:56:49;17.80;99.90
5705;DHT22;2877;48.238;11.160;2022-08-19T00:59:16;17.80;99.90
5705;DHT22;2877;48.238;11.160;2022-08-19T01:01:44;17.90;99.90
5705;DHT22;2877;48.238;11.160;2022-08-19T01:04:10;17.90;99.90
5705;DHT22;2877;48.238;11.160;2022-08-19T01:06:37;17.90;99.90
5705;DHT22;2877;48.238;11.160;2022-08-19T01:09:04;17.90;99.90
5705;DHT22;2877;48.238;11.160;2022-08-19T01:11:31;17.90;99.90
5705;DHT22;2877;48.238;11.160;2022-08-19T01:13:59;17.80;99.90
5705;DHT22;2877;48.238;11.160;2022-08-19T01:16:26;17.80;99.90
5705;DHT22;2877;48.238;11.160;2022-08-19T01:18:53;17.80;99.90
5705;DHT22;2877;48.238;11.160;2022-08-19T01:21:34;17.80;99.90
5705;DHT22;2877;48.238;11.160;2022-08-19T01:24:02;17.80;99.90
5705;DHT22;2877;48.238;11.160;2022-08-19T01:26:28;17.80;99.90
5705;DHT22;2877;48.238;11.160;2022-08-19T01:28:57;17.80;99.90
5705;DHT22;2877;48.238;11.160;2022-08-19T01:31:26;17.80;99.90
5705;DHT22;2877;48.238;11.160;2022-08-19T01:33:55;17.80;99.90
5705;DHT22;2877;48.238;11.160;2022-08-19T01:36:34;17.80;99.90
5705;DHT22;2877;48.238;11.160;2022-08-19T01:39:03;17.80;99.90
5705;DHT22;2877;48.238;11.160;2022-08-19T01:41:29;17.80;99.90
5705;DHT22;2877;48.238;11.160;2022-08-19T01:43:55;17.90;99.90
5705;DHT22;2877;48.238;11.160;2022-08-19T01:46:21;17.90;99.90
5705;DHT22;2877;48.238;11.160;2022-08-19T01:48:47;17.90;99.90
5705;DHT22;2877;48.238;11.160;2022-08-19T01:51:13;17.80;99.90
5705;DHT22;2877;48.238;11.160;2022-08-19T01:53:40;17.80;99.90
5705;DHT22;2877;48.238;11.160;2022-08-19T01:56:06;17.90;99.90
5705;DHT22;2877;48.238;11.160;2022-08-19T01:58:38;17.90;99.90
5705;DHT22;2877;48.238;11.160;2022-08-19T02:01:06;17.90;99.90
5705;DHT22;2877;48.238;11.160;2022-08-19T02:03:32;17.90;99.90
5705;DHT22;2877;48.238;11.160;2022-08-19T02:06:01;17.90;99.90
5705;DHT22;2877;48.238;11.160;2022-08-19T02:08:28;18.00;99.90
5705;DHT22;2877;48.238;11.160;2022-08-19T02:10:54;18.00;99.90
5705;DHT22;2877;48.238;11.160;2022-08-19T02:13:20;17.90;99.90
5705;DHT22;2877;48.238;11.160;2022-08-19T02:15:45;18.00;99.90
5705;DHT22;2877;48.238;11.160;2022-08-19T02:18:11;18.00;99.90
5705;DHT22;2877;48.238;11.160;2022-08-19T02:20:38;18.00;99.90
5705;DHT22;2877;48.238;11.160;2022-08-19T02:23:04;18.00;99.90
5705;DHT22;2877;48.238;11.160;2022-08-19T02:25:29;18.00;99.90
5705;DHT22;2877;48.238;11.160;2022-08-19T02:27:55;18.10;99.90
5705;DHT22;2877;48.238;11.160;2022-08-19T02:30:21;18.00;99.90
5705;DHT22;2877;48.238;11.160;2022-08-19T02:32:47;18.00;99.90
5705;DHT22;2877;48.238;11.160;2022-08-19T02:35:13;17.90;99.90
5705;DHT22;2877;48.238;11.160;2022-08-19T02:37:40;17.90;99.90
5705;DHT22;2877;48.238;11.160;2022-08-19T02:40:26;17.90;99.90
5705;DHT22;2877;48.238;11.160;2022-08-19T02:42:52;17.90;99.90
5705;DHT22;2877;48.238;11.160;2022-08-19T02:45:17;17.90;99.90
5705;DHT22;2877;48.238;11.160;2022-08-19T02:47:43;17.90;99.90
5705;DHT22;2877;48.238;11.160;2022-08-19T02:50:09;17.90;99.90
5705;DHT22;2877;48.238;11.160;2022-08-19T02:52:35;17.90;99.90
5705;DHT22;2877;48.238;11.160;2022-08-19T02:55:00;17.90;99.90
5705;DHT22;2877;48.238;11.160;2022-08-19T02:57:26;17.90;99.90
5705;DHT22;2877;48.238;11.160;2022-08-19T02:59:52;17.90;99.90
5705;DHT22;2877;48.238;11.160;2022-08-19T03:02:19;17.80;99.90
5705;DHT22;2877;48.238;11.160;2022-08-19T03:04:44;17.80;99.90
5705;DHT22;2877;48.238;11.160;2022-08-19T03:07:14;17.70;99.90
5705;DHT22;2877;48.238;11.160;2022-08-19T03:09:40;17.70;99.90
5705;DHT22;2877;48.238;11.160;2022-08-19T03:12:05;17.60;99.90
5705;DHT22;2877;48.238;11.160;2022-08-19T03:14:32;17.50;99.90
5705;DHT22;2877;48.238;11.160;2022-08-19T03:16:58;17.50;99.90
5705;DHT22;2877;48.238;11.160;2022-08-19T03:19:24;17.50;99.90
5705;DHT22;2877;48.238;11.160;2022-08-19T03:21:50;17.40;99.90
5705;DHT22;2877;48.238;11.160;2022-08-19T03:24:16;17.40;99.90
5705;DHT22;2877;48.238;11.160;2022-08-19T03:26:45;17.40;99.90
5705;DHT22;2877;48.238;11.160;2022-08-19T03:29:11;17.30;99.90
5705;DHT22;2877;48.238;11.160;2022-08-19T03:31:39;17.30;99.90
5705;DHT22;2877;48.238;11.160;2022-08-19T03:34:05;17.30;99.90
5705;DHT22;2877;48.238;11.160;2022-08-19T03:36:31;17.30;99.90
5705;DHT22;2877;48.238;11.160;2022-08-19T03:38:59;17.40;99.90
5705;DHT22;2877;48.238;11.160;2022-08-19T03:41:28;17.50;99.90
5705;DHT22;2877;48.238;11.160;2022-08-19T03:43:54;17.50;99.90
5705;DHT22;2877;48.238;11.160;2022-08-19T03:46:25;17.60;99.90
5705;DHT22;2877;48.238;11.160;2022-08-19T03:48:53;17.60;99.90
5705;DHT22;2877;48.238;11.160;2022-08-19T03:51:26;17.60;99.90
5705;DHT22;2877;48.238;11.160;2022-08-19T03:53:53;17.70;99.90
5705;DHT22;2877;48.238;11.160;2022-08-19T03:56:19;17.70;99.90
5705;DHT22;2877;48.238;11.160;2022-08-19T03:58:44;17.70;99.90
5705;DHT22;2877;48.238;11.160;2022-08-19T04:01:15;17.70;99.90
5705;DHT22;2877;48.238;11.160;2022-08-19T04:03:41;17.60;99.90
5705;DHT22;2877;48.238;11.160;2022-08-19T04:06:17;17.60;99.90
5705;DHT22;2877;48.238;11.160;2022-08-19T04:08:45;17.50;99.90
5705;DHT22;2877;48.238;11.160;2022-08-19T04:11:13;17.60;99.90
5705;DHT22;2877;48.238;11.160;2022-08-19T04:13:40;17.50;99.90
5705;DHT22;2877;48.238;11.160;2022-08-19T04:16:06;17.50;99.90
5705;DHT22;2877;48.238;11.160;2022-08-19T04:18:36;17.50;99.90
5705;DHT22;2877;48.238;11.160;2022-08-19T04:21:02;17.50;99.90
5705;DHT22;2877;48.238;11.160;2022-08-19T04:23:27;17.50;99.90
5705;DHT22;2877;48.238;11.160;2022-08-19T04:25:54;17.50;99.90
5705;DHT22;2877;48.238;11.160;2022-08-19T04:28:20;17.50;99.90
5705;DHT22;2877;48.238;11.160;2022-08-19T04:30:48;17.50;99.90
5705;DHT22;2877;48.238;11.160;2022-08-19T04:33:19;17.50;99.90
5705;DHT22;2877;48.238;11.160;2022-08-19T04:35:46;17.60;99.90
5705;DHT22;2877;48.238;11.160;2022-08-19T04:38:14;17.60;99.90
5705;DHT22;2877;48.238;11.160;2022-08-19T04:40:44;17.60;99.90
5705;DHT22;2877;48.238;11.160;2022-08-19T04:43:30;17.60;99.90
5705;DHT22;2877;48.238;11.160;2022-08-19T04:45:56;17.60;99.90
5705;DHT22;2877;48.238;11.160;2022-08-19T04:48:22;17.70;99.90
5705;DHT22;2877;48.238;11.160;2022-08-19T04:50:55;17.70;99.90
5705;DHT22;2877;48.238;11.160;2022-08-19T04:53:27;17.70;99.90
5705;DHT22;2877;48.238;11.160;2022-08-19T04:55:55;17.70;99.90
5705;DHT22;2877;48.238;11.160;2022-08-19T04:58:22;17.80;99.90
5705;DHT22;2877;48.238;11.160;2022-08-19T05:00:47;17.70;99.90
5705;DHT22;2877;48.238;11.160;2022-08-19T05:03:13;17.70;99.90
5705;DHT22;2877;48.238;11.160;2022-08-19T05:05:43;17.70;99.90
5705;DHT22;2877;48.238;11.160;2022-08-19T05:08:10;17.70;99.90
5705;DHT22;2877;48.238;11.160;2022-08-19T05:10:39;17.80;99.90
5705;DHT22;2877;48.238;11.160;2022-08-19T05:13:05;17.70;99.90
5705;DHT22;2877;48.238;11.160;2022-08-19T05:15:31;17.70;99.90
5705;DHT22;2877;48.238;11.160;2022-08-19T05:17:57;17.80;99.90
5705;DHT22;2877;48.238;11.160;2022-08-19T05:20:41;17.80;99.90
5705;DHT22;2877;48.238;11.160;2022-08-19T05:23:26;17.80;99.90
5705;DHT22;2877;48.238;11.160;2022-08-19T05:25:52;17.80;99.90
5705;DHT22;2877;48.238;11.160;2022-08-19T05:28:19;17.80;99.90
5705;DHT22;2877;48.238;11.160;2022-08-19T05:30:45;17.70;99.90
5705;DHT22;2877;48.238;11.160;2022-08-19T05:33:11;17.70;99.90
5705;DHT22;2877;48.238;11.160;2022-08-19T05:35:38;17.70;99.90
5705;DHT22;2877;48.238;11.160;2022-08-19T05:38:05;17.80;99.90
5705;DHT22;2877;48.238;11.160;2022-08-19T05:40:34;17.90;99.90
5705;DHT22;2877;48.238;11.160;2022-08-19T05:43:02;17.90;99.90
5705;DHT22;2877;48.238;11.160;2022-08-19T05:45:27;17.90;99.90
5705;DHT22;2877;48.238;11.160;2022-08-19T05:47:53;17.90;99.90
5705;DHT22;2877;48.238;11.160;2022-08-19T05:50:19;17.90;99.90
5705;DHT22;2877;48.238;11.160;2022-08-19T05:52:45;17.90;99.90
5705;DHT22;2877;48.238;11.160;2022-08-19T05:55:10;17.90;99.90
5705;DHT22;2877;48.238;11.160;2022-08-19T05:57:36;17.90;99.90
5705;DHT22;2877;48.238;11.160;2022-08-19T06:00:04;17.90;99.90
5705;DHT22;2877;48.238;11.160;2022-08-19T06:02:33;17.90;99.90
5705;DHT22;2877;48.238;11.160;2022-08-19T06:05:00;17.90;99.90
5705;DHT22;2877;48.238;11.160;2022-08-19T06:07:27;17.90;99.90
5705;DHT22;2877;48.238;11.160;2022-08-19T06:09:54;17.80;99.90
5705;DHT22;2877;48.238;11.160;2022-08-19T06:12:20;17.80;99.90
5705;DHT22;2877;48.238;11.160;2022-08-19T06:14:46;17.80;99.90
5705;DHT22;2877;48.238;11.160;2022-08-19T06:17:11;17.80;99.90
5705;DHT22;2877;48.238;11.160;2022-08-19T06:19:38;17.90;99.90
5705;DHT22;2877;48.238;11.160;2022-08-19T06:22:04;17.90;99.90
5705;DHT22;2877;48.238;11.160;2022-08-19T06:24:31;18.00;99.90
5705;DHT22;2877;48.238;11.160;2022-08-19T06:26:58;18.10;99.90
5705;DHT22;2877;48.238;11.160;2022-08-19T06:29:26;18.10;99.90
5705;DHT22;2877;48.238;11.160;2022-08-19T06:31:55;18.20;99.90
5705;DHT22;2877;48.238;11.160;2022-08-19T06:34:22;18.20;99.90
5705;DHT22;2877;48.238;11.160;2022-08-19T06:36:50;18.30;99.90
5705;DHT22;2877;48.238;11.160;2022-08-19T06:39:23;18.30;99.90
5705;DHT22;2877;48.238;11.160;2022-08-19T06:41:52;18.40;99.90
5705;DHT22;2877;48.238;11.160;2022-08-19T06:44:20;18.40;99.90
5705;DHT22;2877;48.238;11.160;2022-08-19T06:46:46;18.40;99.90
5705;DHT22;2877;48.238;11.160;2022-08-19T06:49:14;18.40;99.90
5705;DHT22;2877;48.238;11.160;2022-08-19T06:51:44;18.40;99.90
5705;DHT22;2877;48.238;11.160;2022-08-19T06:54:10;18.40;99.90
5705;DHT22;2877;48.238;11.160;2022-08-19T06:56:36;18.40;99.90
5705;DHT22;2877;48.238;11.160;2022-08-19T06:59:04;18.40;99.90
5705;DHT22;2877;48.238;11.160;2022-08-19T07:01:35;18.40;99.90
5705;DHT22;2877;48.238;11.160;2022-08-19T07:04:03;18.40;99.90
5705;DHT22;2877;48.238;11.160;2022-08-19T07:06:29;18.30;99.90
5705;DHT22;2877;48.238;11.160;2022-08-19T07:08:57;18.40;99.90
5705;DHT22;2877;48.238;11.160;2022-08-19T07:11:23;18.40;99.90
5705;DHT22;2877;48.238;11.160;2022-08-19T07:13:49;18.40;99.90
5705;DHT22;2877;48.238;11.160;2022-08-19T07:16:17;18.40;99.90
5705;DHT22;2877;48.238;11.160;2022-08-19T07:18:44;18.40;99.90
5705;DHT22;2877;48.238;11.160;2022-08-19T07:21:12;18.50;99.90
5705;DHT22;2877;48.238;11.160;2022-08-19T07:23:39;18.50;99.90
5705;DHT22;2877;48.238;11.160;2022-08-19T07:26:07;18.50;99.90
5705;DHT22;2877;48.238;11.160;2022-08-19T07:28:33;18.50;99.90
5705;DHT22;2877;48.238;11.160;2022-08-19T07:30:59;18.50;99.90
5705;DHT22;2877;48.238;11.160;2022-08-19T07:33:27;18.50;99.90
5705;DHT22;2877;48.238;11.160;2022-08-19T07:35:52;18.60;99.90
5705;DHT22;2877;48.238;11.160;2022-08-19T07:38:19;18.60;99.90
5705;DHT22;2877;48.238;11.160;2022-08-19T07:40:45;18.50;99.90
5705;DHT22;2877;48.238;11.160;2022-08-19T07:43:11;18.50;99.90
5705;DHT22;2877;48.238;11.160;2022-08-19T07:45:37;18.50;99.90
5705;DHT22;2877;48.238;11.160;2022-08-19T07:48:03;18.40;99.90
5705;DHT22;2877;48.238;11.160;2022-08-19T07:50:29;18.40;99.90
5705;DHT22;2877;48.238;11.160;2022-08-19T07:52:54;18.50;99.90
5705;DHT22;2877;48.238;11.160;2022-08-19T07:55:24;18.50;99.90
5705;DHT22;2877;48.238;11.160;2022-08-19T07:57:50;18.40;99.90
5705;DHT22;2877;48.238;11.160;2022-08-19T08:00:18;18.50;99.90
5705;DHT22;2877;48.238;11.160;2022-08-19T08:02:43;18.40;99.90
5705;DHT22;2877;48.238;11.160;2022-08-19T08:05:09;18.40;99.90
5705;DHT22;2877;48.238;11.160;2022-08-19T08:07:54;18.40;99.90
5705;DHT22;2877;48.238;11.160;2022-08-19T08:10:38;18.40;99.90
5705;DHT22;2877;48.238;11.160;2022-08-19T08:13:04;18.30;99.90
5705;DHT22;2877;48.238;11.160;2022-08-19T08:15:30;18.30;99.90
5705;DHT22;2877;48.238;11.160;2022-08-19T08:17:56;18.20;99.90
5705;DHT22;2877;48.238;11.160;2022-08-19T08:20:23;18.20;99.90
5705;DHT22;2877;48.238;11.160;2022-08-19T08:22:49;18.20;99.90
5705;DHT22;2877;48.238;11.160;2022-08-19T08:25:34;18.20;99.90
5705;DHT22;2877;48.238;11.160;2022-08-19T08:28:01;18.20;99.90
5705;DHT22;2877;48.238;11.160;2022-08-19T08:30:28;18.10;99.90
5705;DHT22;2877;48.238;11.160;2022-08-19T08:32:55;18.10;99.90
5705;DHT22;2877;48.238;11.160;2022-08-19T08:35:22;17.90;99.90
5705;DHT22;2877;48.238;11.160;2022-08-19T08:37:50;17.80;99.90
5705;DHT22;2877;48.238;11.160;2022-08-19T08:40:28;17.80;99.90
5705;DHT22;2877;48.238;11.160;2022-08-19T08:43:06;17.80;99.90
5705;DHT22;2877;48.238;11.160;2022-08-19T08:45:36;17.70;99.90
5705;DHT22;2877;48.238;11.160;2022-08-19T08:48:13;17.70;99.90
5705;DHT22;2877;48.238;11.160;2022-08-19T08:50:43;17.60;99.90
5705;DHT22;2877;48.238;11.160;2022-08-19T08:53:11;17.70;99.90
5705;DHT22;2877;48.238;11.160;2022-08-19T08:55:40;17.70;99.90
5705;DHT22;2877;48.238;11.160;2022-08-19T08:58:11;17.60;99.90
5705;DHT22;2877;48.238;11.160;2022-08-19T09:00:43;17.70;99.90
5705;DHT22;2877;48.238;11.160;2022-08-19T09:03:23;17.70;99.90
5705;DHT22;2877;48.238;11.160;2022-08-19T09:08:28;17.70;99.90
5705;DHT22;2877;48.238;11.160;2022-08-19T09:10:56;17.80;99.90
5705;DHT22;2877;48.238;11.160;2022-08-19T09:16:20;17.80;99.90
5705;DHT22;2877;48.238;11.160;2022-08-19T09:18:49;17.80;99.90
5705;DHT22;2877;48.238;11.160;2022-08-19T09:21:17;17.70;99.90
5705;DHT22;2877;48.238;11.160;2022-08-19T09:23:44;17.80;99.90
5705;DHT22;2877;48.238;11.160;2022-08-19T09:26:15;17.80;99.90
5705;DHT22;2877;48.238;11.160;2022-08-19T09:28:45;17.80;99.90
5705;DHT22;2877;48.238;11.160;2022-08-19T09:31:12;17.90;99.90
5705;DHT22;2877;48.238;11.160;2022-08-19T09:33:38;17.90;99.90
5705;DHT22;2877;48.238;11.160;2022-08-19T09:36:06;18.00;99.90
5705;DHT22;2877;48.238;11.160;2022-08-19T09:38:33;18.00;99.90
5705;DHT22;2877;48.238;11.160;2022-08-19T09:41:05;17.90;99.90
5705;DHT22;2877;48.238;11.160;2022-08-19T09:43:32;17.90;99.90
5705;DHT22;2877;48.238;11.160;2022-08-19T09:45:59;17.80;99.90
5705;DHT22;2877;48.238;11.160;2022-08-19T09:48:26;17.80;99.90
5705;DHT22;2877;48.238;11.160;2022-08-19T09:50:51;17.90;99.90
5705;DHT22;2877;48.238;11.160;2022-08-19T09:53:17;17.90;99.90
5705;DHT22;2877;48.238;11.160;2022-08-19T09:55:43;18.00;99.90
5705;DHT22;2877;48.238;11.160;2022-08-19T09:58:08;18.00;99.90
5705;DHT22;2877;48.238;11.160;2022-08-19T10:00:34;18.00;99.90
5705;DHT22;2877;48.238;11.160;2022-08-19T10:03:02;17.90;99.90
5705;DHT22;2877;48.238;11.160;2022-08-19T10:05:27;18.00;99.90
5705;DHT22;2877;48.238;11.160;2022-08-19T10:08:11;17.90;99.90
5705;DHT22;2877;48.238;11.160;2022-08-19T10:10:37;17.90;99.90
5705;DHT22;2877;48.238;11.160;2022-08-19T10:13:02;17.80;99.90
5705;DHT22;2877;48.238;11.160;2022-08-19T10:15:29;17.80;99.90
5705;DHT22;2877;48.238;11.160;2022-08-19T10:17:55;17.80;99.90
5705;DHT22;2877;48.238;11.160;2022-08-19T10:20:21;17.80;99.90
5705;DHT22;2877;48.238;11.160;2022-08-19T10:22:48;17.80;99.90
5705;DHT22;2877;48.238;11.160;2022-08-19T10:25:13;17.80;99.90
5705;DHT22;2877;48.238;11.160;2022-08-19T10:27:39;17.70;99.90
5705;DHT22;2877;48.238;11.160;2022-08-19T10:30:06;17.60;99.90
5705;DHT22;2877;48.238;11.160;2022-08-19T10:32:32;17.60;99.90
5705;DHT22;2877;48.238;11.160;2022-08-19T10:34:57;17.50;99.90
5705;DHT22;2877;48.238;11.160;2022-08-19T10:37:23;17.60;99.90
5705;DHT22;2877;48.238;11.160;2022-08-19T10:39:48;17.60;99.90
5705;DHT22;2877;48.238;11.160;2022-08-19T10:42:14;17.70;99.90
5705;DHT22;2877;48.238;11.160;2022-08-19T10:44:41;17.80;99.90
5705;DHT22;2877;48.238;11.160;2022-08-19T10:47:06;18.00;99.90
5705;DHT22;2877;48.238;11.160;2022-08-19T10:49:32;17.90;99.90
5705;DHT22;2877;48.238;11.160;2022-08-19T10:52:17;17.90;99.90
5705;DHT22;2877;48.238;11.160;2022-08-19T10:55:02;18.10;99.90
5705;DHT22;2877;48.238;11.160;2022-08-19T10:57:47;18.10;99.90
5705;DHT22;2877;48.238;11.160;2022-08-19T11:00:13;18.10;99.90
5705;DHT22;2877;48.238;11.160;2022-08-19T11:02:39;18.00;99.90
5705;DHT22;2877;48.238;11.160;2022-08-19T11:05:07;18.10;99.90
5705;DHT22;2877;48.238;11.160;2022-08-19T11:07:32;18.20;99.90
5705;DHT22;2877;48.238;11.160;2022-08-19T11:09:58;18.20;99.90
5705;DHT22;2877;48.238;11.160;2022-08-19T11:12:24;18.10;99.90
5705;DHT22;2877;48.238;11.160;2022-08-19T11:14:50;18.20;99.90
5705;DHT22;2877;48.238;11.160;2022-08-19T11:17:16;18.50;99.90
5705;DHT22;2877;48.238;11.160;2022-08-19T11:19:41;18.30;99.90
5705;DHT22;2877;48.238;11.160;2022-08-19T11:22:08;18.30;99.90
5705;DHT22;2877;48.238;11.160;2022-08-19T11:24:35;18.40;99.90
5705;DHT22;2877;48.238;11.160;2022-08-19T11:27:06;18.60;99.90
5705;DHT22;2877;48.238;11.160;2022-08-19T11:29:33;18.60;99.90
5705;DHT22;2877;48.238;11.160;2022-08-19T11:32:02;18.40;99.90
5705;DHT22;2877;48.238;11.160;2022-08-19T11:34:28;18.40;99.90
5705;DHT22;2877;48.238;11.160;2022-08-19T11:36:55;18.40;99.90
5705;DHT22;2877;48.238;11.160;2022-08-19T11:39:25;18.40;99.90
5705;DHT22;2877;48.238;11.160;2022-08-19T11:41:52;18.40;99.90
5705;DHT22;2877;48.238;11.160;2022-08-19T11:44:17;18.40;99.90
5705;DHT22;2877;48.238;11.160;2022-08-19T11:46:44;18.30;99.90
5705;DHT22;2877;48.238;11.160;2022-08-19T11:49:13;18.30;99.90
5705;DHT22;2877;48.238;11.160;2022-08-19T11:51:39;18.40;99.90
5705;DHT22;2877;48.238;11.160;2022-08-19T11:54:07;18.50;99.90
5705;DHT22;2877;48.238;11.160;2022-08-19T11:56:33;18.70;99.90
5705;DHT22;2877;48.238;11.160;2022-08-19T11:59:00;18.80;99.90
5705;DHT22;2877;48.238;11.160;2022-08-19T12:01:26;18.80;99.90
5705;DHT22;2877;48.238;11.160;2022-08-19T12:03:53;18.80;99.90
5705;DHT22;2877;48.238;11.160;2022-08-19T12:06:23;18.90;99.90
5705;DHT22;2877;48.238;11.160;2022-08-19T12:08:51;18.90;99.90
5705;DHT22;2877;48.238;11.160;2022-08-19T12:11:17;18.90;99.90
5705;DHT22;2877;48.238;11.160;2022-08-19T12:13:43;18.80;99.90
5705;DHT22;2877;48.238;11.160;2022-08-19T12:16:16;18.90;99.90
5705;DHT22;2877;48.238;11.160;2022-08-19T12:18:42;19.00;99.90
5705;DHT22;2877;48.238;11.160;2022-08-19T12:21:19;19.10;99.90
5705;DHT22;2877;48.238;11.160;2022-08-19T12:23:47;19.10;99.90
5705;DHT22;2877;48.238;11.160;2022-08-19T12:26:13;19.30;99.90
5705;DHT22;2877;48.238;11.160;2022-08-19T12:28:39;19.30;99.90
5705;DHT22;2877;48.238;11.160;2022-08-19T12:31:04;19.30;99.90
5705;DHT22;2877;48.238;11.160;2022-08-19T12:33:31;19.40;99.90
5705;DHT22;2877;48.238;11.160;2022-08-19T12:36:02;19.50;99.90
5705;DHT22;2877;48.238;11.160;2022-08-19T12:38:28;19.70;99.90
5705;DHT22;2877;48.238;11.160;2022-08-19T12:40:54;19.70;99.90
5705;DHT22;2877;48.238;11.160;2022-08-19T12:43:19;19.80;99.90
5705;DHT22;2877;48.238;11.160;2022-08-19T12:45:46;19.70;99.90
5705;DHT22;2877;48.238;11.160;2022-08-19T12:48:12;19.40;99.90
5705;DHT22;2877;48.238;11.160;2022-08-19T12:50:42;19.10;99.90
5705;DHT22;2877;48.238;11.160;2022-08-19T12:53:10;19.10;99.90
5705;DHT22;2877;48.238;11.160;2022-08-19T12:55:36;18.90;99.90
5705;DHT22;2877;48.238;11.160;2022-08-19T12:58:01;18.90;99.90
5705;DHT22;2877;48.238;11.160;2022-08-19T13:00:27;18.80;99.90
5705;DHT22;2877;48.238;11.160;2022-08-19T13:02:54;18.90;99.90
5705;DHT22;2877;48.238;11.160;2022-08-19T13:05:22;19.00;99.90
5705;DHT22;2877;48.238;11.160;2022-08-19T13:07:49;19.00;99.90
5705;DHT22;2877;48.238;11.160;2022-08-19T13:10:18;19.10;99.90
5705;DHT22;2877;48.238;11.160;2022-08-19T13:12:46;19.10;99.90
5705;DHT22;2877;48.238;11.160;2022-08-19T13:15:13;19.30;99.90
5705;DHT22;2877;48.238;11.160;2022-08-19T13:17:39;19.60;99.90
5705;DHT22;2877;48.238;11.160;2022-08-19T13:20:06;19.70;99.90
5705;DHT22;2877;48.238;11.160;2022-08-19T13:22:33;19.90;99.90
5705;DHT22;2877;48.238;11.160;2022-08-19T13:24:58;20.00;99.90
5705;DHT22;2877;48.238;11.160;2022-08-19T13:27:24;19.90;99.90
5705;DHT22;2877;48.238;11.160;2022-08-19T13:29:49;19.90;99.90
5705;DHT22;2877;48.238;11.160;2022-08-19T13:32:34;19.80;99.90
5705;DHT22;2877;48.238;11.160;2022-08-19T13:35:18;19.60;99.90
5705;DHT22;2877;48.238;11.160;2022-08-19T13:37:43;19.50;99.90
5705;DHT22;2877;48.238;11.160;2022-08-19T13:42:43;19.40;99.90
5705;DHT22;2877;48.238;11.160;2022-08-19T13:45:09;19.60;99.90
5705;DHT22;2877;48.238;11.160;2022-08-19T13:47:36;19.70;99.90
5705;DHT22;2877;48.238;11.160;2022-08-19T13:50:09;19.70;99.90
5705;DHT22;2877;48.238;11.160;2022-08-19T13:52:35;19.80;99.90
5705;DHT22;2877;48.238;11.160;2022-08-19T13:55:00;19.80;99.90
5705;DHT22;2877;48.238;11.160;2022-08-19T13:57:26;19.80;99.90
5705;DHT22;2877;48.238;11.160;2022-08-19T13:59:51;19.80;99.90
5705;DHT22;2877;48.238;11.160;2022-08-19T14:02:17;19.80;99.90
5705;DHT22;2877;48.238;11.160;2022-08-19T14:04:42;19.60;99.90
5705;DHT22;2877;48.238;11.160;2022-08-19T14:07:08;19.50;99.90
5705;DHT22;2877;48.238;11.160;2022-08-19T14:09:34;19.50;99.90
5705;DHT22;2877;48.238;11.160;2022-08-19T14:12:00;19.60;99.90
5705;DHT22;2877;48.238;11.160;2022-08-19T14:14:26;19.50;99.90
5705;DHT22;2877;48.238;11.160;2022-08-19T14:16:51;19.40;99.90
5705;DHT22;2877;48.238;11.160;2022-08-19T14:19:17;19.20;99.90
5705;DHT22;2877;48.238;11.160;2022-08-19T14:21:42;19.10;99.90
5705;DHT22;2877;48.238;11.160;2022-08-19T14:24:08;19.20;99.90
5705;DHT22;2877;48.238;11.160;2022-08-19T14:26:34;19.10;99.90
5705;DHT22;2877;48.238;11.160;2022-08-19T14:28:59;19.10;99.90
5705;DHT22;2877;48.238;11.160;2022-08-19T14:31:27;19.00;99.90
5705;DHT22;2877;48.238;11.160;2022-08-19T14:33:53;18.90;99.90
5705;DHT22;2877;48.238;11.160;2022-08-19T14:36:20;18.90;99.90
5705;DHT22;2877;48.238;11.160;2022-08-19T14:38:46;18.80;99.90
5705;DHT22;2877;48.238;11.160;2022-08-19T14:41:19;18.80;99.90
5705;DHT22;2877;48.238;11.160;2022-08-19T14:43:47;18.70;99.90
5705;DHT22;2877;48.238;11.160;2022-08-19T14:46:15;18.70;99.90
5705;DHT22;2877;48.238;11.160;2022-08-19T14:48:41;18.70;99.90
5705;DHT22;2877;48.238;11.160;2022-08-19T14:51:07;18.60;99.90
5705;DHT22;2877;48.238;11.160;2022-08-19T14:53:33;18.60;99.90
5705;DHT22;2877;48.238;11.160;2022-08-19T14:55:59;18.60;99.90
5705;DHT22;2877;48.238;11.160;2022-08-19T14:58:27;18.60;99.90
5705;DHT22;2877;48.238;11.160;2022-08-19T15:00:52;18.50;99.90
5705;DHT22;2877;48.238;11.160;2022-08-19T15:03:18;18.60;99.90
5705;DHT22;2877;48.238;11.160;2022-08-19T15:05:44;18.50;99.90
5705;DHT22;2877;48.238;11.160;2022-08-19T15:08:09;18.40;99.90
5705;DHT22;2877;48.238;11.160;2022-08-19T15:10:37;18.40;99.90
5705;DHT22;2877;48.238;11.160;2022-08-19T15:13:03;18.40;99.90
5705;DHT22;2877;48.238;11.160;2022-08-19T15:15:28;18.40;99.90
5705;DHT22;2877;48.238;11.160;2022-08-19T15:17:54;18.40;99.90
5705;DHT22;2877;48.238;11.160;2022-08-19T15:20:22;18.40;99.90
5705;DHT22;2877;48.238;11.160;2022-08-19T15:22:48;18.40;99.90
5705;DHT22;2877;48.238;11.160;2022-08-19T15:25:16;18.30;99.90
5705;DHT22;2877;48.238;11.160;2022-08-19T15:27:42;18.30;99.90
5705;DHT22;2877;48.238;11.160;2022-08-19T15:30:10;18.30;99.90
5705;DHT22;2877;48.238;11.160;2022-08-19T15:32:37;18.30;99.90
5705;DHT22;2877;48.238;11.160;2022-08-19T15:35:05;18.30;99.90
5705;DHT22;2877;48.238;11.160;2022-08-19T15:37:31;18.20;99.90
5705;DHT22;2877;48.238;11.160;2022-08-19T15:39:57;18.30;99.90
5705;DHT22;2877;48.238;11.160;2022-08-19T15:42:22;18.30;99.90
5705;DHT22;2877;48.238;11.160;2022-08-19T15:44:48;18.20;99.90
5705;DHT22;2877;48.238;11.160;2022-08-19T15:47:14;18.20;99.90
5705;DHT22;2877;48.238;11.160;2022-08-19T15:49:39;18.20;99.90
5705;DHT22;2877;48.238;11.160;2022-08-19T15:52:05;18.20;99.90
5705;DHT22;2877;48.238;11.160;2022-08-19T15:54:32;18.10;99.90